sensor_id;sensor_type;location;lat;lon;timestamp;P1;durP1;ratioP1;P2;durP2;ratioP2
49998;SDS011;68071;45.062;7.356;2023-03-08T00:01:55;29.42;;;23.02;;
49998;SDS011;68071;45.062;7.356;2023-03-08T00:04:59;27.35;;;23.08;;
49998;SDS011;68071;45.062;7.356;2023-03-08T00:08:04;22.57;;;20.03;;
49998;SDS011;68071;45.062;7.356;2023-03-08T00:11:08;27.02;;;22.42;;
49998;SDS011;68071;45.062;7.356;2023-03-08T00:14:14;29.95;;;24.30;;
49998;SDS011;68071;45.062;7.356;2023-03-08T00:17:19;31.40;;;21.23;;
49998;SDS011;68071;45.062;7.356;2023-03-08T00:20:23;32.20;;;24.60;;
49998;SDS011;68071;45.062;7.356;2023-03-08T00:23:27;30.73;;;23.38;;
49998;SDS011;68071;45.062;7.356;2023-03-08T00:26:30;30.30;;;23.98;;
49998;SDS011;68071;45.062;7.356;2023-03-08T00:29:53;29.20;;;23.00;;
49998;SDS011;68071;45.062;7.356;2023-03-08T00:32:57;31.08;;;24.20;;
49998;SDS011;68071;45.062;7.356;2023-03-08T00:36:02;35.97;;;25.10;;
49998;SDS011;68071;45.062;7.356;2023-03-08T00:39:08;34.70;;;24.38;;
49998;SDS011;68071;45.062;7.356;2023-03-08T00:42:14;32.25;;;26.08;;
49998;SDS011;68071;45.062;7.356;2023-03-08T00:45:18;39.42;;;30.88;;
49998;SDS011;68071;45.062;7.356;2023-03-08T00:48:22;35.10;;;27.73;;
49998;SDS011;68071;45.062;7.356;2023-03-08T00:51:28;36.20;;;25.55;;
49998;SDS011;68071;45.062;7.356;2023-03-08T00:54:32;36.95;;;27.33;;
49998;SDS011;68071;45.062;7.356;2023-03-08T00:57:36;37.05;;;26.38;;
49998;SDS011;68071;45.062;7.356;2023-03-08T01:00:40;33.35;;;26.48;;
49998;SDS011;68071;45.062;7.356;2023-03-08T01:03:44;32.60;;;26.10;;
49998;SDS011;68071;45.062;7.356;2023-03-08T01:06:48;26.45;;;21.65;;
49998;SDS011;68071;45.062;7.356;2023-03-08T01:09:53;32.30;;;24.10;;
49998;SDS011;68071;45.062;7.356;2023-03-08T01:16:02;38.13;;;27.35;;
49998;SDS011;68071;45.062;7.356;2023-03-08T01:19:08;34.95;;;26.40;;
49998;SDS011;68071;45.062;7.356;2023-03-08T01:22:12;38.55;;;27.30;;
49998;SDS011;68071;45.062;7.356;2023-03-08T01:25:16;34.10;;;26.35;;
49998;SDS011;68071;45.062;7.356;2023-03-08T01:28:23;35.92;;;27.05;;
49998;SDS011;68071;45.062;7.356;2023-03-08T01:31:28;33.88;;;26.42;;
49998;SDS011;68071;45.062;7.356;2023-03-08T01:34:37;35.30;;;26.15;;
49998;SDS011;68071;45.062;7.356;2023-03-08T01:37:41;36.97;;;26.73;;
49998;SDS011;68071;45.062;7.356;2023-03-08T01:40:45;33.40;;;25.25;;
49998;SDS011;68071;45.062;7.356;2023-03-08T01:43:49;37.42;;;27.02;;
49998;SDS011;68071;45.062;7.356;2023-03-08T01:46:54;28.07;;;22.57;;
49998;SDS011;68071;45.062;7.356;2023-03-08T01:50:03;28.15;;;22.63;;
49998;SDS011;68071;45.062;7.356;2023-03-08T01:53:13;38.15;;;25.95;;
49998;SDS011;68071;45.062;7.356;2023-03-08T01:56:17;35.92;;;26.92;;
49998;SDS011;68071;45.062;7.356;2023-03-08T01:59:23;30.63;;;23.42;;
49998;SDS011;68071;45.062;7.356;2023-03-08T02:02:29;34.28;;;25.05;;
49998;SDS011;68071;45.062;7.356;2023-03-08T02:05:40;33.45;;;26.98;;
49998;SDS011;68071;45.062;7.356;2023-03-08T02:08:58;38.65;;;27.40;;
49998;SDS011;68071;45.062;7.356;2023-03-08T02:12:09;31.25;;;25.30;;
49998;SDS011;68071;45.062;7.356;2023-03-08T02:15:16;38.88;;;27.50;;
49998;SDS011;68071;45.062;7.356;2023-03-08T02:18:26;27.05;;;21.83;;
49998;SDS011;68071;45.062;7.356;2023-03-08T02:21:31;30.65;;;24.98;;
49998;SDS011;68071;45.062;7.356;2023-03-08T02:24:35;35.03;;;27.77;;
49998;SDS011;68071;45.062;7.356;2023-03-08T02:27:39;30.85;;;24.55;;
49998;SDS011;68071;45.062;7.356;2023-03-08T02:30:46;27.70;;;21.27;;
49998;SDS011;68071;45.062;7.356;2023-03-08T02:36:55;35.05;;;27.95;;
49998;SDS011;68071;45.062;7.356;2023-03-08T02:39:59;34.90;;;27.02;;
49998;SDS011;68071;45.062;7.356;2023-03-08T02:43:03;36.05;;;28.00;;
49998;SDS011;68071;45.062;7.356;2023-03-08T02:46:10;31.23;;;24.58;;
49998;SDS011;68071;45.062;7.356;2023-03-08T02:49:14;31.40;;;24.50;;
49998;SDS011;68071;45.062;7.356;2023-03-08T02:52:19;37.15;;;26.92;;
49998;SDS011;68071;45.062;7.356;2023-03-08T02:55:23;32.65;;;25.95;;
49998;SDS011;68071;45.062;7.356;2023-03-08T02:58:27;29.45;;;23.55;;
49998;SDS011;68071;45.062;7.356;2023-03-08T03:01:31;34.45;;;25.23;;
49998;SDS011;68071;45.062;7.356;2023-03-08T03:04:36;38.85;;;26.77;;
49998;SDS011;68071;45.062;7.356;2023-03-08T03:07:41;39.63;;;28.35;;
49998;SDS011;68071;45.062;7.356;2023-03-08T03:10:50;37.80;;;28.35;;
49998;SDS011;68071;45.062;7.356;2023-03-08T03:13:55;37.10;;;27.77;;
49998;SDS011;68071;45.062;7.356;2023-03-08T03:17:04;36.38;;;26.60;;
49998;SDS011;68071;45.062;7.356;2023-03-08T03:20:09;38.10;;;26.63;;
49998;SDS011;68071;45.062;7.356;2023-03-08T03:23:14;31.92;;;23.95;;
49998;SDS011;68071;45.062;7.356;2023-03-08T03:26:25;40.38;;;29.08;;
49998;SDS011;68071;45.062;7.356;2023-03-08T03:29:32;38.15;;;29.58;;
49998;SDS011;68071;45.062;7.356;2023-03-08T03:32:46;34.00;;;25.50;;
49998;SDS011;68071;45.062;7.356;2023-03-08T03:35:54;35.85;;;24.20;;
49998;SDS011;68071;45.062;7.356;2023-03-08T03:38:58;36.88;;;27.40;;
49998;SDS011;68071;45.062;7.356;2023-03-08T03:42:03;34.35;;;27.02;;
49998;SDS011;68071;45.062;7.356;2023-03-08T03:45:08;29.25;;;24.25;;
49998;SDS011;68071;45.062;7.356;2023-03-08T03:48:14;39.08;;;28.17;;
49998;SDS011;68071;45.062;7.356;2023-03-08T03:51:20;35.75;;;28.13;;
49998;SDS011;68071;45.062;7.356;2023-03-08T03:54:31;33.95;;;25.33;;
49998;SDS011;68071;45.062;7.356;2023-03-08T03:57:38;33.95;;;27.88;;
49998;SDS011;68071;45.062;7.356;2023-03-08T04:00:43;35.08;;;28.73;;
49998;SDS011;68071;45.062;7.356;2023-03-08T04:03:57;36.67;;;28.13;;
49998;SDS011;68071;45.062;7.356;2023-03-08T04:07:03;39.63;;;27.83;;
49998;SDS011;68071;45.062;7.356;2023-03-08T04:10:12;36.30;;;26.88;;
49998;SDS011;68071;45.062;7.356;2023-03-08T04:13:17;32.47;;;26.05;;
49998;SDS011;68071;45.062;7.356;2023-03-08T04:16:26;37.03;;;27.63;;
49998;SDS011;68071;45.062;7.356;2023-03-08T04:19:38;33.15;;;27.25;;
49998;SDS011;68071;45.062;7.356;2023-03-08T04:22:44;37.10;;;27.95;;
49998;SDS011;68071;45.062;7.356;2023-03-08T04:25:58;37.08;;;29.20;;
49998;SDS011;68071;45.062;7.356;2023-03-08T04:29:04;39.00;;;28.08;;
49998;SDS011;68071;45.062;7.356;2023-03-08T04:32:11;40.80;;;29.98;;
49998;SDS011;68071;45.062;7.356;2023-03-08T04:35:21;38.65;;;29.58;;
49998;SDS011;68071;45.062;7.356;2023-03-08T04:38:29;36.63;;;26.05;;
49998;SDS011;68071;45.062;7.356;2023-03-08T04:41:36;40.47;;;30.45;;
49998;SDS011;68071;45.062;7.356;2023-03-08T04:44:52;40.72;;;29.23;;
49998;SDS011;68071;45.062;7.356;2023-03-08T04:48:00;45.13;;;31.70;;
49998;SDS011;68071;45.062;7.356;2023-03-08T04:51:04;38.58;;;28.77;;
49998;SDS011;68071;45.062;7.356;2023-03-08T04:57:20;49.72;;;36.00;;
49998;SDS011;68071;45.062;7.356;2023-03-08T05:00:25;37.75;;;26.88;;
49998;SDS011;68071;45.062;7.356;2023-03-08T05:03:30;33.30;;;24.95;;
49998;SDS011;68071;45.062;7.356;2023-03-08T05:06:33;34.67;;;26.75;;
49998;SDS011;68071;45.062;7.356;2023-03-08T05:09:37;36.70;;;28.75;;
49998;SDS011;68071;45.062;7.356;2023-03-08T05:12:41;39.40;;;29.80;;
49998;SDS011;68071;45.062;7.356;2023-03-08T05:15:46;33.63;;;25.50;;
49998;SDS011;68071;45.062;7.356;2023-03-08T05:18:50;33.75;;;24.60;;
49998;SDS011;68071;45.062;7.356;2023-03-08T05:22:00;30.65;;;25.13;;
49998;SDS011;68071;45.062;7.356;2023-03-08T05:25:04;39.22;;;27.63;;
49998;SDS011;68071;45.062;7.356;2023-03-08T05:31:20;33.55;;;25.67;;
49998;SDS011;68071;45.062;7.356;2023-03-08T05:34:27;33.58;;;24.08;;
49998;SDS011;68071;45.062;7.356;2023-03-08T05:37:34;39.58;;;28.98;;
49998;SDS011;68071;45.062;7.356;2023-03-08T05:40:40;48.60;;;29.65;;
49998;SDS011;68071;45.062;7.356;2023-03-08T05:43:45;36.88;;;25.92;;
49998;SDS011;68071;45.062;7.356;2023-03-08T05:46:50;26.67;;;19.60;;
49998;SDS011;68071;45.062;7.356;2023-03-08T05:49:55;21.10;;;15.50;;
49998;SDS011;68071;45.062;7.356;2023-03-08T05:53:08;23.73;;;17.48;;
49998;SDS011;68071;45.062;7.356;2023-03-08T05:56:14;33.25;;;23.42;;
49998;SDS011;68071;45.062;7.356;2023-03-08T05:59:42;26.45;;;20.65;;
49998;SDS011;68071;45.062;7.356;2023-03-08T06:02:49;32.15;;;24.63;;
49998;SDS011;68071;45.062;7.356;2023-03-08T06:05:53;29.42;;;22.30;;
49998;SDS011;68071;45.062;7.356;2023-03-08T06:08:57;28.80;;;22.80;;
49998;SDS011;68071;45.062;7.356;2023-03-08T06:12:01;31.98;;;22.98;;
49998;SDS011;68071;45.062;7.356;2023-03-08T06:15:07;26.10;;;20.08;;
49998;SDS011;68071;45.062;7.356;2023-03-08T06:18:14;25.60;;;18.27;;
49998;SDS011;68071;45.062;7.356;2023-03-08T06:21:19;28.92;;;21.40;;
49998;SDS011;68071;45.062;7.356;2023-03-08T06:24:33;22.42;;;18.63;;
49998;SDS011;68071;45.062;7.356;2023-03-08T06:27:40;27.35;;;20.42;;
49998;SDS011;68071;45.062;7.356;2023-03-08T06:30:52;20.98;;;16.63;;
49998;SDS011;68071;45.062;7.356;2023-03-08T06:33:57;17.15;;;12.95;;
49998;SDS011;68071;45.062;7.356;2023-03-08T06:37:03;16.25;;;11.43;;
49998;SDS011;68071;45.062;7.356;2023-03-08T06:40:08;14.75;;;11.43;;
49998;SDS011;68071;45.062;7.356;2023-03-08T06:43:14;19.13;;;14.02;;
49998;SDS011;68071;45.062;7.356;2023-03-08T06:46:19;20.75;;;14.13;;
49998;SDS011;68071;45.062;7.356;2023-03-08T06:49:23;24.95;;;15.13;;
49998;SDS011;68071;45.062;7.356;2023-03-08T06:52:27;22.33;;;17.83;;
49998;SDS011;68071;45.062;7.356;2023-03-08T06:55:38;23.45;;;19.80;;
49998;SDS011;68071;45.062;7.356;2023-03-08T06:58:43;24.77;;;20.45;;
49998;SDS011;68071;45.062;7.356;2023-03-08T07:01:47;30.83;;;23.48;;
49998;SDS011;68071;45.062;7.356;2023-03-08T07:04:51;38.03;;;33.85;;
49998;SDS011;68071;45.062;7.356;2023-03-08T07:07:55;31.95;;;26.05;;
49998;SDS011;68071;45.062;7.356;2023-03-08T07:10:59;33.25;;;25.60;;
49998;SDS011;68071;45.062;7.356;2023-03-08T07:14:03;37.67;;;24.25;;
49998;SDS011;68071;45.062;7.356;2023-03-08T07:17:07;32.15;;;22.38;;
49998;SDS011;68071;45.062;7.356;2023-03-08T07:20:11;29.42;;;22.23;;
49998;SDS011;68071;45.062;7.356;2023-03-08T07:23:17;31.90;;;22.83;;
49998;SDS011;68071;45.062;7.356;2023-03-08T07:26:21;27.90;;;20.30;;
49998;SDS011;68071;45.062;7.356;2023-03-08T07:29:25;29.48;;;18.85;;
49998;SDS011;68071;45.062;7.356;2023-03-08T07:32:29;24.38;;;17.77;;
49998;SDS011;68071;45.062;7.356;2023-03-08T07:35:33;27.20;;;20.15;;
49998;SDS011;68071;45.062;7.356;2023-03-08T07:38:37;25.77;;;19.00;;
49998;SDS011;68071;45.062;7.356;2023-03-08T07:41:41;24.23;;;17.92;;
49998;SDS011;68071;45.062;7.356;2023-03-08T07:44:45;24.73;;;17.17;;
49998;SDS011;68071;45.062;7.356;2023-03-08T07:47:49;24.98;;;17.90;;
49998;SDS011;68071;45.062;7.356;2023-03-08T07:51:00;29.65;;;19.60;;
49998;SDS011;68071;45.062;7.356;2023-03-08T07:54:05;27.23;;;19.73;;
49998;SDS011;68071;45.062;7.356;2023-03-08T07:57:13;24.23;;;17.85;;
49998;SDS011;68071;45.062;7.356;2023-03-08T08:00:18;27.58;;;17.52;;
49998;SDS011;68071;45.062;7.356;2023-03-08T08:03:23;26.27;;;17.20;;
49998;SDS011;68071;45.062;7.356;2023-03-08T08:06:27;23.70;;;16.65;;
49998;SDS011;68071;45.062;7.356;2023-03-08T08:09:30;22.40;;;17.20;;
49998;SDS011;68071;45.062;7.356;2023-03-08T08:12:34;23.70;;;16.85;;
49998;SDS011;68071;45.062;7.356;2023-03-08T08:15:39;25.45;;;16.92;;
49998;SDS011;68071;45.062;7.356;2023-03-08T08:18:43;22.40;;;16.77;;
49998;SDS011;68071;45.062;7.356;2023-03-08T08:21:46;23.38;;;16.15;;
49998;SDS011;68071;45.062;7.356;2023-03-08T08:24:50;22.85;;;15.95;;
49998;SDS011;68071;45.062;7.356;2023-03-08T08:27:54;23.20;;;16.00;;
49998;SDS011;68071;45.062;7.356;2023-03-08T08:30:59;23.67;;;16.15;;
49998;SDS011;68071;45.062;7.356;2023-03-08T08:34:06;22.38;;;16.25;;
49998;SDS011;68071;45.062;7.356;2023-03-08T08:37:10;19.92;;;14.63;;
49998;SDS011;68071;45.062;7.356;2023-03-08T08:40:14;27.83;;;17.48;;
49998;SDS011;68071;45.062;7.356;2023-03-08T08:43:18;23.88;;;15.35;;
49998;SDS011;68071;45.062;7.356;2023-03-08T08:46:22;25.63;;;16.65;;
49998;SDS011;68071;45.062;7.356;2023-03-08T08:49:26;21.23;;;16.25;;
49998;SDS011;68071;45.062;7.356;2023-03-08T08:52:30;16.92;;;11.68;;
49998;SDS011;68071;45.062;7.356;2023-03-08T08:55:34;15.00;;;10.02;;
49998;SDS011;68071;45.062;7.356;2023-03-08T08:58:38;15.25;;;10.20;;
49998;SDS011;68071;45.062;7.356;2023-03-08T09:01:42;17.42;;;11.13;;
49998;SDS011;68071;45.062;7.356;2023-03-08T09:04:47;16.30;;;10.38;;
49998;SDS011;68071;45.062;7.356;2023-03-08T09:07:54;13.15;;;9.55;;
49998;SDS011;68071;45.062;7.356;2023-03-08T09:11:01;13.65;;;9.35;;
49998;SDS011;68071;45.062;7.356;2023-03-08T09:14:06;15.52;;;11.02;;
49998;SDS011;68071;45.062;7.356;2023-03-08T09:17:10;18.58;;;11.40;;
49998;SDS011;68071;45.062;7.356;2023-03-08T09:20:15;15.38;;;10.43;;
49998;SDS011;68071;45.062;7.356;2023-03-08T09:23:20;15.48;;;11.48;;
49998;SDS011;68071;45.062;7.356;2023-03-08T09:26:23;20.90;;;11.73;;
49998;SDS011;68071;45.062;7.356;2023-03-08T09:29:27;16.02;;;13.15;;
49998;SDS011;68071;45.062;7.356;2023-03-08T09:32:32;15.77;;;12.00;;
49998;SDS011;68071;45.062;7.356;2023-03-08T09:35:37;17.33;;;13.30;;
49998;SDS011;68071;45.062;7.356;2023-03-08T09:38:41;19.08;;;13.82;;
49998;SDS011;68071;45.062;7.356;2023-03-08T09:41:50;18.35;;;12.02;;
49998;SDS011;68071;45.062;7.356;2023-03-08T09:48:23;17.35;;;12.55;;
49998;SDS011;68071;45.062;7.356;2023-03-08T09:51:33;19.15;;;14.23;;
49998;SDS011;68071;45.062;7.356;2023-03-08T09:54:41;20.23;;;13.68;;
49998;SDS011;68071;45.062;7.356;2023-03-08T09:57:50;20.75;;;13.43;;
49998;SDS011;68071;45.062;7.356;2023-03-08T10:00:58;20.25;;;12.48;;
49998;SDS011;68071;45.062;7.356;2023-03-08T10:11:15;19.00;;;12.25;;
49998;SDS011;68071;45.062;7.356;2023-03-08T10:14:59;17.98;;;13.40;;
49998;SDS011;68071;45.062;7.356;2023-03-08T10:21:12;17.20;;;12.57;;
49998;SDS011;68071;45.062;7.356;2023-03-08T10:24:30;18.33;;;13.27;;
49998;SDS011;68071;45.062;7.356;2023-03-08T10:27:43;20.00;;;11.48;;
49998;SDS011;68071;45.062;7.356;2023-03-08T10:30:52;16.90;;;12.65;;
49998;SDS011;68071;45.062;7.356;2023-03-08T10:34:05;18.30;;;13.23;;
49998;SDS011;68071;45.062;7.356;2023-03-08T10:40:19;20.00;;;14.07;;
49998;SDS011;68071;45.062;7.356;2023-03-08T10:46:31;22.05;;;14.60;;
49998;SDS011;68071;45.062;7.356;2023-03-08T10:49:35;17.87;;;13.53;;
49998;SDS011;68071;45.062;7.356;2023-03-08T10:52:40;19.63;;;13.85;;
49998;SDS011;68071;45.062;7.356;2023-03-08T10:55:49;20.15;;;14.63;;
49998;SDS011;68071;45.062;7.356;2023-03-08T10:58:55;19.77;;;13.57;;
49998;SDS011;68071;45.062;7.356;2023-03-08T11:08:26;23.05;;;13.98;;
49998;SDS011;68071;45.062;7.356;2023-03-08T11:11:41;19.73;;;13.15;;
49998;SDS011;68071;45.062;7.356;2023-03-08T11:14:45;17.63;;;12.90;;
49998;SDS011;68071;45.062;7.356;2023-03-08T11:18:04;16.13;;;12.70;;
49998;SDS011;68071;45.062;7.356;2023-03-08T11:21:25;20.48;;;13.05;;
49998;SDS011;68071;45.062;7.356;2023-03-08T11:31:29;19.55;;;13.40;;
49998;SDS011;68071;45.062;7.356;2023-03-08T11:38:24;19.40;;;14.27;;
49998;SDS011;68071;45.062;7.356;2023-03-08T11:41:41;24.55;;;14.40;;
49998;SDS011;68071;45.062;7.356;2023-03-08T11:45:01;21.33;;;14.48;;
49998;SDS011;68071;45.062;7.356;2023-03-08T12:02:36;20.55;;;14.75;;
49998;SDS011;68071;45.062;7.356;2023-03-08T12:05:53;20.42;;;13.93;;
49998;SDS011;68071;45.062;7.356;2023-03-08T12:09:02;20.60;;;13.00;;
49998;SDS011;68071;45.062;7.356;2023-03-08T12:15:32;18.83;;;13.43;;
49998;SDS011;68071;45.062;7.356;2023-03-08T12:25:39;19.65;;;13.82;;
49998;SDS011;68071;45.062;7.356;2023-03-08T12:28:57;17.45;;;12.43;;
49998;SDS011;68071;45.062;7.356;2023-03-08T12:32:06;16.67;;;12.00;;
49998;SDS011;68071;45.062;7.356;2023-03-08T12:41:35;18.90;;;12.10;;
49998;SDS011;68071;45.062;7.356;2023-03-08T12:44:39;18.00;;;11.65;;
49998;SDS011;68071;45.062;7.356;2023-03-08T12:48:45;13.48;;;11.07;;
49998;SDS011;68071;45.062;7.356;2023-03-08T12:51:31;12.50;;;7.47;;
49998;SDS011;68071;45.062;7.356;2023-03-08T12:54:36;11.75;;;7.60;;
49998;SDS011;68071;45.062;7.356;2023-03-08T12:57:51;13.25;;;9.82;;
49998;SDS011;68071;45.062;7.356;2023-03-08T13:00:59;10.57;;;8.07;;
49998;SDS011;68071;45.062;7.356;2023-03-08T13:04:06;13.93;;;9.07;;
49998;SDS011;68071;45.062;7.356;2023-03-08T13:07:38;10.13;;;7.53;;
49998;SDS011;68071;45.062;7.356;2023-03-08T13:11:11;15.85;;;9.00;;
49998;SDS011;68071;45.062;7.356;2023-03-08T13:14:21;13.23;;;9.15;;
49998;SDS011;68071;45.062;7.356;2023-03-08T13:23:47;13.43;;;9.65;;
49998;SDS011;68071;45.062;7.356;2023-03-08T13:27:21;15.43;;;9.23;;
49998;SDS011;68071;45.062;7.356;2023-03-08T13:30:33;15.88;;;9.65;;
49998;SDS011;68071;45.062;7.356;2023-03-08T13:34:00;14.60;;;8.95;;
49998;SDS011;68071;45.062;7.356;2023-03-08T13:37:03;12.48;;;8.15;;
49998;SDS011;68071;45.062;7.356;2023-03-08T13:40:15;14.13;;;9.80;;
49998;SDS011;68071;45.062;7.356;2023-03-08T13:43:22;12.25;;;9.48;;
49998;SDS011;68071;45.062;7.356;2023-03-08T13:46:27;11.65;;;9.45;;
49998;SDS011;68071;45.062;7.356;2023-03-08T13:49:35;17.27;;;11.00;;
49998;SDS011;68071;45.062;7.356;2023-03-08T13:52:44;15.30;;;10.38;;
49998;SDS011;68071;45.062;7.356;2023-03-08T13:55:50;14.85;;;11.05;;
49998;SDS011;68071;45.062;7.356;2023-03-08T13:58:56;13.38;;;10.18;;
49998;SDS011;68071;45.062;7.356;2023-03-08T14:02:02;14.20;;;10.30;;
49998;SDS011;68071;45.062;7.356;2023-03-08T14:05:21;13.50;;;10.60;;
49998;SDS011;68071;45.062;7.356;2023-03-08T14:08:32;12.00;;;9.43;;
49998;SDS011;68071;45.062;7.356;2023-03-08T14:11:37;13.75;;;10.05;;
49998;SDS011;68071;45.062;7.356;2023-03-08T14:14:46;14.57;;;10.07;;
49998;SDS011;68071;45.062;7.356;2023-03-08T14:17:53;11.35;;;9.13;;
49998;SDS011;68071;45.062;7.356;2023-03-08T14:21:04;12.77;;;10.77;;
49998;SDS011;68071;45.062;7.356;2023-03-08T14:24:14;15.30;;;9.27;;
49998;SDS011;68071;45.062;7.356;2023-03-08T14:30:46;12.15;;;9.35;;
49998;SDS011;68071;45.062;7.356;2023-03-08T14:34:01;10.95;;;8.00;;
49998;SDS011;68071;45.062;7.356;2023-03-08T14:40:27;14.50;;;9.10;;
49998;SDS011;68071;45.062;7.356;2023-03-08T14:43:33;10.52;;;8.43;;
49998;SDS011;68071;45.062;7.356;2023-03-08T14:46:37;11.13;;;8.65;;
49998;SDS011;68071;45.062;7.356;2023-03-08T14:49:41;11.88;;;8.93;;
49998;SDS011;68071;45.062;7.356;2023-03-08T14:52:50;11.85;;;9.57;;
49998;SDS011;68071;45.062;7.356;2023-03-08T14:56:00;10.90;;;8.25;;
49998;SDS011;68071;45.062;7.356;2023-03-08T14:59:08;12.27;;;9.38;;
49998;SDS011;68071;45.062;7.356;2023-03-08T15:02:13;11.23;;;8.97;;
49998;SDS011;68071;45.062;7.356;2023-03-08T15:05:19;11.80;;;8.85;;
49998;SDS011;68071;45.062;7.356;2023-03-08T15:08:24;13.00;;;8.57;;
49998;SDS011;68071;45.062;7.356;2023-03-08T15:11:29;12.85;;;9.20;;
49998;SDS011;68071;45.062;7.356;2023-03-08T15:14:34;14.43;;;9.50;;
49998;SDS011;68071;45.062;7.356;2023-03-08T15:17:38;13.32;;;8.85;;
49998;SDS011;68071;45.062;7.356;2023-03-08T15:20:46;12.27;;;8.75;;
49998;SDS011;68071;45.062;7.356;2023-03-08T15:23:52;14.55;;;8.55;;
49998;SDS011;68071;45.062;7.356;2023-03-08T15:26:56;11.60;;;8.47;;
49998;SDS011;68071;45.062;7.356;2023-03-08T15:30:00;12.73;;;9.18;;
49998;SDS011;68071;45.062;7.356;2023-03-08T15:33:04;12.75;;;9.15;;
49998;SDS011;68071;45.062;7.356;2023-03-08T15:36:15;12.80;;;9.20;;
49998;SDS011;68071;45.062;7.356;2023-03-08T15:39:20;13.13;;;7.95;;
49998;SDS011;68071;45.062;7.356;2023-03-08T15:42:24;12.30;;;9.15;;
49998;SDS011;68071;45.062;7.356;2023-03-08T15:45:28;13.13;;;8.90;;
49998;SDS011;68071;45.062;7.356;2023-03-08T15:48:32;12.85;;;9.20;;
49998;SDS011;68071;45.062;7.356;2023-03-08T15:51:37;14.55;;;8.73;;
49998;SDS011;68071;45.062;7.356;2023-03-08T15:54:41;14.90;;;10.25;;
49998;SDS011;68071;45.062;7.356;2023-03-08T15:57:49;13.80;;;8.80;;
49998;SDS011;68071;45.062;7.356;2023-03-08T16:00:54;11.02;;;8.35;;
49998;SDS011;68071;45.062;7.356;2023-03-08T16:03:58;11.13;;;8.75;;
49998;SDS011;68071;45.062;7.356;2023-03-08T16:07:02;11.50;;;9.00;;
49998;SDS011;68071;45.062;7.356;2023-03-08T16:10:11;14.55;;;9.60;;
49998;SDS011;68071;45.062;7.356;2023-03-08T16:13:16;13.30;;;10.15;;
49998;SDS011;68071;45.062;7.356;2023-03-08T16:16:21;14.27;;;10.88;;
49998;SDS011;68071;45.062;7.356;2023-03-08T16:19:25;14.63;;;10.75;;
49998;SDS011;68071;45.062;7.356;2023-03-08T16:22:29;15.85;;;11.52;;
49998;SDS011;68071;45.062;7.356;2023-03-08T16:25:33;13.07;;;10.90;;
49998;SDS011;68071;45.062;7.356;2023-03-08T16:28:37;15.75;;;10.73;;
49998;SDS011;68071;45.062;7.356;2023-03-08T16:31:41;16.58;;;10.50;;
49998;SDS011;68071;45.062;7.356;2023-03-08T16:34:45;13.68;;;9.88;;
49998;SDS011;68071;45.062;7.356;2023-03-08T16:37:53;13.07;;;9.77;;
49998;SDS011;68071;45.062;7.356;2023-03-08T16:41:00;12.23;;;8.98;;
49998;SDS011;68071;45.062;7.356;2023-03-08T16:44:06;13.88;;;10.35;;
49998;SDS011;68071;45.062;7.356;2023-03-08T16:47:19;12.95;;;10.55;;
49998;SDS011;68071;45.062;7.356;2023-03-08T16:50:24;11.48;;;9.77;;
49998;SDS011;68071;45.062;7.356;2023-03-08T16:53:30;13.80;;;10.18;;
49998;SDS011;68071;45.062;7.356;2023-03-08T16:56:34;11.48;;;8.50;;
49998;SDS011;68071;45.062;7.356;2023-03-08T16:59:41;13.35;;;9.15;;
49998;SDS011;68071;45.062;7.356;2023-03-08T17:02:45;14.48;;;9.75;;
49998;SDS011;68071;45.062;7.356;2023-03-08T17:05:49;12.88;;;9.07;;
49998;SDS011;68071;45.062;7.356;2023-03-08T17:08:54;12.23;;;7.95;;
49998;SDS011;68071;45.062;7.356;2023-03-08T17:11:59;13.40;;;9.20;;
49998;SDS011;68071;45.062;7.356;2023-03-08T17:15:04;13.77;;;10.65;;
49998;SDS011;68071;45.062;7.356;2023-03-08T17:18:09;15.40;;;11.30;;
49998;SDS011;68071;45.062;7.356;2023-03-08T17:21:13;27.80;;;19.95;;
49998;SDS011;68071;45.062;7.356;2023-03-08T17:24:17;25.23;;;18.65;;
49998;SDS011;68071;45.062;7.356;2023-03-08T17:27:22;29.90;;;20.80;;
49998;SDS011;68071;45.062;7.356;2023-03-08T17:30:27;20.87;;;15.20;;
49998;SDS011;68071;45.062;7.356;2023-03-08T17:33:31;17.17;;;13.15;;
49998;SDS011;68071;45.062;7.356;2023-03-08T17:36:34;19.70;;;14.48;;
49998;SDS011;68071;45.062;7.356;2023-03-08T17:39:38;19.45;;;15.20;;
49998;SDS011;68071;45.062;7.356;2023-03-08T17:42:42;22.90;;;17.17;;
49998;SDS011;68071;45.062;7.356;2023-03-08T17:45:59;21.48;;;16.75;;
49998;SDS011;68071;45.062;7.356;2023-03-08T17:49:05;28.45;;;19.80;;
49998;SDS011;68071;45.062;7.356;2023-03-08T17:52:09;26.38;;;20.05;;
49998;SDS011;68071;45.062;7.356;2023-03-08T17:55:13;27.33;;;21.73;;
49998;SDS011;68071;45.062;7.356;2023-03-08T17:58:17;22.98;;;18.77;;
49998;SDS011;68071;45.062;7.356;2023-03-08T18:01:23;26.20;;;18.20;;
49998;SDS011;68071;45.062;7.356;2023-03-08T18:04:29;22.83;;;15.88;;
49998;SDS011;68071;45.062;7.356;2023-03-08T18:07:33;21.42;;;17.45;;
49998;SDS011;68071;45.062;7.356;2023-03-08T18:10:37;17.98;;;15.00;;
49998;SDS011;68071;45.062;7.356;2023-03-08T18:13:42;23.25;;;16.30;;
49998;SDS011;68071;45.062;7.356;2023-03-08T18:16:45;19.08;;;14.70;;
49998;SDS011;68071;45.062;7.356;2023-03-08T18:19:49;19.63;;;16.08;;
49998;SDS011;68071;45.062;7.356;2023-03-08T18:22:53;21.95;;;15.65;;
49998;SDS011;68071;45.062;7.356;2023-03-08T18:25:58;16.87;;;14.20;;
49998;SDS011;68071;45.062;7.356;2023-03-08T18:29:03;17.25;;;12.93;;
49998;SDS011;68071;45.062;7.356;2023-03-08T18:32:07;19.13;;;14.85;;
49998;SDS011;68071;45.062;7.356;2023-03-08T18:35:12;24.85;;;17.38;;
49998;SDS011;68071;45.062;7.356;2023-03-08T18:38:16;24.92;;;18.05;;
49998;SDS011;68071;45.062;7.356;2023-03-08T18:44:28;17.80;;;15.27;;
49998;SDS011;68071;45.062;7.356;2023-03-08T18:47:32;20.33;;;14.38;;
49998;SDS011;68071;45.062;7.356;2023-03-08T18:50:36;23.20;;;15.80;;
49998;SDS011;68071;45.062;7.356;2023-03-08T18:53:40;20.42;;;16.20;;
49998;SDS011;68071;45.062;7.356;2023-03-08T18:56:44;19.13;;;14.88;;
49998;SDS011;68071;45.062;7.356;2023-03-08T18:59:49;20.98;;;16.25;;
49998;SDS011;68071;45.062;7.356;2023-03-08T19:02:53;17.40;;;13.27;;
49998;SDS011;68071;45.062;7.356;2023-03-08T19:05:59;16.20;;;13.52;;
49998;SDS011;68071;45.062;7.356;2023-03-08T19:09:09;24.45;;;19.80;;
49998;SDS011;68071;45.062;7.356;2023-03-08T19:12:14;27.27;;;20.50;;
49998;SDS011;68071;45.062;7.356;2023-03-08T19:15:19;20.67;;;17.52;;
49998;SDS011;68071;45.062;7.356;2023-03-08T19:18:23;23.23;;;17.98;;
49998;SDS011;68071;45.062;7.356;2023-03-08T19:21:37;20.67;;;16.80;;
49998;SDS011;68071;45.062;7.356;2023-03-08T19:24:43;20.20;;;16.38;;
49998;SDS011;68071;45.062;7.356;2023-03-08T19:27:47;20.17;;;15.68;;
49998;SDS011;68071;45.062;7.356;2023-03-08T19:30:51;19.88;;;15.40;;
49998;SDS011;68071;45.062;7.356;2023-03-08T19:33:56;22.27;;;14.20;;
49998;SDS011;68071;45.062;7.356;2023-03-08T19:37:01;17.52;;;13.48;;
49998;SDS011;68071;45.062;7.356;2023-03-08T19:40:08;19.83;;;14.68;;
49998;SDS011;68071;45.062;7.356;2023-03-08T19:43:12;22.63;;;17.75;;
49998;SDS011;68071;45.062;7.356;2023-03-08T19:46:16;22.13;;;19.08;;
49998;SDS011;68071;45.062;7.356;2023-03-08T19:49:22;22.00;;;17.80;;
49998;SDS011;68071;45.062;7.356;2023-03-08T19:52:28;22.75;;;19.70;;